Terminal Aerodrome Forecast
Issued by NWS

Home | Current Version | Previous Version | Text Only | Print | Product List | Glossary On
Versions: 1 2 3 4 5 6 7 8 9 10 11 12 13 14 15 16 17 18 19 20 21 22 23 24 25 26 27 28 29 30 31 32 33 34 35 36 37
000
FTUS44 KFWD 031810 CCA
TAFAFW
TAF COR
KAFW 031810Z 0318/0418 19008KT 6SM BR OVC007
      TEMPO 0318/0321 2SM -RA BR OVC003
     FM032100 19010KT 5SM BR OVC007
     FM040200 17007KT 3SM BR VCSH OVC006
     FM040600 16006KT 2SM -RA OVC005
     FM041300 36016G28KT 5SM -RA BR OVC008=

USA.gov is the U.S. government's official web portal to all federal, state and local government web resources and services.